AL2 weather

Chrome Island Lightstation Helipad
Chrome Island, British Columbia, Canada

Public forecast

Using degrees Celsius for public forecast. Weather courtesy of forecast.io.

METAR (pilot weather report)

Closest report is Comox Airport, 16.4 nm (30.3 km) NNW. Retrieved 2019/07/20 17:00 UTC (10 minutes ago):

CYQQ 201700Z 36007KT 20SM FEW035 FEW250 17/11 A3015 RMK CU1CI2 SLP210

TAF (pilot weather forecast)

Closest forecast is Comox Airport, 16.4 nm (30.3 km) NNW. Retrieved 2019/07/20 12:36 UTC (5 hours ago):

TAF TAF CYQQ 201133Z 2012/2112 30007KT P6SM SKC FM201900 04005KT P6SM FEW250 RMK NXT FCST BY 201800Z